sensor_id;sensor_type;location;lat;lon;timestamp;P1;durP1;ratioP1;P2;durP2;ratioP2
60726;SDS011;46577;49.004;12.120;2023-05-29T00:01:40;10.40;;;5.20;;
60726;SDS011;46577;49.004;12.120;2023-05-29T00:04:06;7.60;;;4.10;;
60726;SDS011;46577;49.004;12.120;2023-05-29T00:06:31;6.77;;;4.13;;
60726;SDS011;46577;49.004;12.120;2023-05-29T00:08:57;11.60;;;5.00;;
60726;SDS011;46577;49.004;12.120;2023-05-29T00:11:22;8.20;;;4.30;;
60726;SDS011;46577;49.004;12.120;2023-05-29T00:13:48;9.97;;;4.73;;
60726;SDS011;46577;49.004;12.120;2023-05-29T00:16:13;8.80;;;5.47;;
60726;SDS011;46577;49.004;12.120;2023-05-29T00:18:39;8.53;;;5.07;;
60726;SDS011;46577;49.004;12.120;2023-05-29T00:21:10;15.93;;;5.40;;
60726;SDS011;46577;49.004;12.120;2023-05-29T00:23:36;7.60;;;4.77;;
60726;SDS011;46577;49.004;12.120;2023-05-29T00:26:01;13.17;;;5.33;;
60726;SDS011;46577;49.004;12.120;2023-05-29T00:28:27;8.53;;;4.50;;
60726;SDS011;46577;49.004;12.120;2023-05-29T00:30:53;8.13;;;4.90;;
60726;SDS011;46577;49.004;12.120;2023-05-29T00:33:18;8.77;;;5.07;;
60726;SDS011;46577;49.004;12.120;2023-05-29T00:35:45;13.57;;;6.13;;
60726;SDS011;46577;49.004;12.120;2023-05-29T00:38:10;6.20;;;4.50;;
60726;SDS011;46577;49.004;12.120;2023-05-29T00:40:36;13.00;;;5.23;;
60726;SDS011;46577;49.004;12.120;2023-05-29T00:43:02;8.33;;;5.30;;
60726;SDS011;46577;49.004;12.120;2023-05-29T00:45:27;7.20;;;5.10;;
60726;SDS011;46577;49.004;12.120;2023-05-29T00:47:53;11.80;;;5.50;;
60726;SDS011;46577;49.004;12.120;2023-05-29T00:50:19;10.73;;;4.97;;
60726;SDS011;46577;49.004;12.120;2023-05-29T00:52:48;12.00;;;5.17;;
60726;SDS011;46577;49.004;12.120;2023-05-29T00:55:14;8.67;;;5.63;;
60726;SDS011;46577;49.004;12.120;2023-05-29T00:57:41;14.10;;;5.70;;
60726;SDS011;46577;49.004;12.120;2023-05-29T01:00:07;7.60;;;4.43;;
60726;SDS011;46577;49.004;12.120;2023-05-29T01:02:38;9.63;;;5.60;;
60726;SDS011;46577;49.004;12.120;2023-05-29T01:05:06;15.50;;;5.27;;
60726;SDS011;46577;49.004;12.120;2023-05-29T01:07:34;12.73;;;5.17;;
60726;SDS011;46577;49.004;12.120;2023-05-29T01:10:00;12.87;;;5.63;;
60726;SDS011;46577;49.004;12.120;2023-05-29T01:12:30;16.93;;;5.33;;
60726;SDS011;46577;49.004;12.120;2023-05-29T01:26:07;12.50;;;5.93;;
60726;SDS011;46577;49.004;12.120;2023-05-29T01:28:57;7.97;;;4.50;;
60726;SDS011;46577;49.004;12.120;2023-05-29T01:31:24;7.67;;;4.50;;
60726;SDS011;46577;49.004;12.120;2023-05-29T01:33:58;8.83;;;4.93;;
60726;SDS011;46577;49.004;12.120;2023-05-29T01:36:25;15.80;;;5.10;;
60726;SDS011;46577;49.004;12.120;2023-05-29T01:38:51;8.77;;;5.67;;
60726;SDS011;46577;49.004;12.120;2023-05-29T01:41:20;8.73;;;4.70;;
60726;SDS011;46577;49.004;12.120;2023-05-29T01:43:46;11.90;;;4.87;;
60726;SDS011;46577;49.004;12.120;2023-05-29T01:46:13;8.73;;;4.30;;
60726;SDS011;46577;49.004;12.120;2023-05-29T01:48:43;9.80;;;5.70;;
60726;SDS011;46577;49.004;12.120;2023-05-29T01:51:10;8.00;;;4.87;;
60726;SDS011;46577;49.004;12.120;2023-05-29T01:53:37;11.93;;;5.20;;
60726;SDS011;46577;49.004;12.120;2023-05-29T01:56:06;13.23;;;5.47;;
60726;SDS011;46577;49.004;12.120;2023-05-29T01:58:37;10.13;;;5.23;;
60726;SDS011;46577;49.004;12.120;2023-05-29T02:01:05;10.43;;;4.77;;
60726;SDS011;46577;49.004;12.120;2023-05-29T02:03:32;13.40;;;5.77;;
60726;SDS011;46577;49.004;12.120;2023-05-29T02:05:58;14.07;;;5.60;;
60726;SDS011;46577;49.004;12.120;2023-05-29T02:08:25;10.30;;;4.50;;
60726;SDS011;46577;49.004;12.120;2023-05-29T02:10:51;11.00;;;5.30;;
60726;SDS011;46577;49.004;12.120;2023-05-29T02:13:17;9.00;;;5.00;;
60726;SDS011;46577;49.004;12.120;2023-05-29T02:15:42;8.00;;;4.47;;
60726;SDS011;46577;49.004;12.120;2023-05-29T02:18:13;11.07;;;5.20;;
60726;SDS011;46577;49.004;12.120;2023-05-29T02:20:40;12.67;;;5.70;;
60726;SDS011;46577;49.004;12.120;2023-05-29T02:23:08;12.53;;;5.33;;
60726;SDS011;46577;49.004;12.120;2023-05-29T02:25:34;11.60;;;4.77;;
60726;SDS011;46577;49.004;12.120;2023-05-29T02:28:00;7.23;;;4.63;;
60726;SDS011;46577;49.004;12.120;2023-05-29T02:30:27;10.20;;;4.53;;
60726;SDS011;46577;49.004;12.120;2023-05-29T02:32:53;12.20;;;5.73;;
60726;SDS011;46577;49.004;12.120;2023-05-29T02:35:19;8.80;;;5.20;;
60726;SDS011;46577;49.004;12.120;2023-05-29T02:37:47;11.70;;;5.50;;
60726;SDS011;46577;49.004;12.120;2023-05-29T02:40:16;7.70;;;4.60;;
60726;SDS011;46577;49.004;12.120;2023-05-29T02:42:43;10.80;;;5.17;;
60726;SDS011;46577;49.004;12.120;2023-05-29T02:45:08;9.50;;;5.00;;
60726;SDS011;46577;49.004;12.120;2023-05-29T02:47:35;10.80;;;5.00;;
60726;SDS011;46577;49.004;12.120;2023-05-29T02:50:01;7.40;;;4.73;;
60726;SDS011;46577;49.004;12.120;2023-05-29T02:52:28;9.40;;;4.77;;
60726;SDS011;46577;49.004;12.120;2023-05-29T02:54:55;13.33;;;5.63;;
60726;SDS011;46577;49.004;12.120;2023-05-29T02:57:21;14.53;;;5.40;;
60726;SDS011;46577;49.004;12.120;2023-05-29T02:59:47;10.03;;;4.53;;
60726;SDS011;46577;49.004;12.120;2023-05-29T03:02:12;10.97;;;4.83;;
60726;SDS011;46577;49.004;12.120;2023-05-29T03:04:38;6.77;;;3.97;;
60726;SDS011;46577;49.004;12.120;2023-05-29T03:07:03;11.87;;;4.90;;
60726;SDS011;46577;49.004;12.120;2023-05-29T03:09:29;10.77;;;5.33;;
60726;SDS011;46577;49.004;12.120;2023-05-29T03:11:55;12.90;;;5.43;;
60726;SDS011;46577;49.004;12.120;2023-05-29T03:14:20;9.90;;;5.07;;
60726;SDS011;46577;49.004;12.120;2023-05-29T03:16:46;8.73;;;5.07;;
60726;SDS011;46577;49.004;12.120;2023-05-29T03:19:14;10.17;;;5.50;;
60726;SDS011;46577;49.004;12.120;2023-05-29T03:21:40;13.00;;;5.00;;
60726;SDS011;46577;49.004;12.120;2023-05-29T03:24:05;8.03;;;5.23;;
60726;SDS011;46577;49.004;12.120;2023-05-29T03:26:31;11.73;;;6.10;;
60726;SDS011;46577;49.004;12.120;2023-05-29T03:28:57;10.53;;;5.73;;
60726;SDS011;46577;49.004;12.120;2023-05-29T03:31:22;10.20;;;5.50;;
60726;SDS011;46577;49.004;12.120;2023-05-29T03:33:48;11.53;;;6.00;;
60726;SDS011;46577;49.004;12.120;2023-05-29T03:36:14;8.37;;;5.50;;
60726;SDS011;46577;49.004;12.120;2023-05-29T03:38:42;11.37;;;5.03;;
60726;SDS011;46577;49.004;12.120;2023-05-29T03:41:08;6.53;;;4.50;;
60726;SDS011;46577;49.004;12.120;2023-05-29T03:43:33;9.10;;;5.17;;
60726;SDS011;46577;49.004;12.120;2023-05-29T03:45:59;12.47;;;5.20;;
60726;SDS011;46577;49.004;12.120;2023-05-29T03:48:25;13.07;;;5.43;;
60726;SDS011;46577;49.004;12.120;2023-05-29T03:50:50;14.10;;;6.50;;
60726;SDS011;46577;49.004;12.120;2023-05-29T03:53:16;10.93;;;5.77;;
60726;SDS011;46577;49.004;12.120;2023-05-29T03:55:42;11.30;;;5.67;;
60726;SDS011;46577;49.004;12.120;2023-05-29T03:58:07;9.63;;;5.40;;
60726;SDS011;46577;49.004;12.120;2023-05-29T04:00:33;10.53;;;5.33;;
60726;SDS011;46577;49.004;12.120;2023-05-29T04:02:59;14.63;;;5.73;;
60726;SDS011;46577;49.004;12.120;2023-05-29T04:05:24;9.17;;;5.03;;
60726;SDS011;46577;49.004;12.120;2023-05-29T04:07:51;10.87;;;5.23;;
60726;SDS011;46577;49.004;12.120;2023-05-29T04:10:17;7.73;;;5.03;;
60726;SDS011;46577;49.004;12.120;2023-05-29T04:12:42;21.70;;;5.87;;
60726;SDS011;46577;49.004;12.120;2023-05-29T04:15:08;13.20;;;5.30;;
60726;SDS011;46577;49.004;12.120;2023-05-29T04:17:34;9.70;;;5.10;;
60726;SDS011;46577;49.004;12.120;2023-05-29T04:20:00;8.37;;;5.57;;
60726;SDS011;46577;49.004;12.120;2023-05-29T04:22:31;11.47;;;5.40;;
60726;SDS011;46577;49.004;12.120;2023-05-29T04:24:56;9.27;;;4.87;;
60726;SDS011;46577;49.004;12.120;2023-05-29T04:27:22;6.10;;;4.37;;
60726;SDS011;46577;49.004;12.120;2023-05-29T04:29:47;21.50;;;4.93;;
60726;SDS011;46577;49.004;12.120;2023-05-29T04:32:13;12.77;;;5.87;;
60726;SDS011;46577;49.004;12.120;2023-05-29T04:34:39;14.73;;;5.50;;
60726;SDS011;46577;49.004;12.120;2023-05-29T04:37:05;12.37;;;6.00;;
60726;SDS011;46577;49.004;12.120;2023-05-29T04:39:31;8.07;;;5.43;;
60726;SDS011;46577;49.004;12.120;2023-05-29T04:41:57;8.10;;;4.60;;
60726;SDS011;46577;49.004;12.120;2023-05-29T04:44:26;8.73;;;5.07;;
60726;SDS011;46577;49.004;12.120;2023-05-29T04:46:54;16.00;;;5.10;;
60726;SDS011;46577;49.004;12.120;2023-05-29T04:49:21;9.60;;;4.60;;
60726;SDS011;46577;49.004;12.120;2023-05-29T04:51:47;10.17;;;5.20;;
60726;SDS011;46577;49.004;12.120;2023-05-29T04:54:12;9.53;;;5.37;;
60726;SDS011;46577;49.004;12.120;2023-05-29T04:56:38;11.23;;;5.60;;
60726;SDS011;46577;49.004;12.120;2023-05-29T04:59:07;7.97;;;4.77;;
60726;SDS011;46577;49.004;12.120;2023-05-29T05:01:33;11.27;;;4.77;;
60726;SDS011;46577;49.004;12.120;2023-05-29T05:03:59;8.37;;;4.50;;
60726;SDS011;46577;49.004;12.120;2023-05-29T05:06:25;12.73;;;4.20;;
60726;SDS011;46577;49.004;12.120;2023-05-29T05:08:51;11.00;;;4.90;;
60726;SDS011;46577;49.004;12.120;2023-05-29T05:11:18;12.23;;;4.57;;
60726;SDS011;46577;49.004;12.120;2023-05-29T05:13:44;5.60;;;4.50;;
60726;SDS011;46577;49.004;12.120;2023-05-29T05:16:09;6.37;;;4.30;;
60726;SDS011;46577;49.004;12.120;2023-05-29T05:18:35;9.23;;;4.87;;
60726;SDS011;46577;49.004;12.120;2023-05-29T05:21:01;8.27;;;4.50;;
60726;SDS011;46577;49.004;12.120;2023-05-29T05:23:28;7.87;;;4.23;;
60726;SDS011;46577;49.004;12.120;2023-05-29T05:25:55;8.90;;;4.40;;
60726;SDS011;46577;49.004;12.120;2023-05-29T05:28:20;8.23;;;4.80;;
60726;SDS011;46577;49.004;12.120;2023-05-29T05:30:46;9.77;;;5.03;;
60726;SDS011;46577;49.004;12.120;2023-05-29T05:33:12;7.93;;;4.77;;
60726;SDS011;46577;49.004;12.120;2023-05-29T05:35:38;10.13;;;4.93;;
60726;SDS011;46577;49.004;12.120;2023-05-29T05:38:03;15.23;;;5.60;;
60726;SDS011;46577;49.004;12.120;2023-05-29T05:40:29;10.73;;;5.10;;
60726;SDS011;46577;49.004;12.120;2023-05-29T05:42:55;8.17;;;5.13;;
60726;SDS011;46577;49.004;12.120;2023-05-29T05:45:20;9.60;;;4.53;;
60726;SDS011;46577;49.004;12.120;2023-05-29T05:47:46;17.13;;;4.90;;
60726;SDS011;46577;49.004;12.120;2023-05-29T05:50:12;7.50;;;4.37;;
60726;SDS011;46577;49.004;12.120;2023-05-29T05:52:38;8.63;;;4.50;;
60726;SDS011;46577;49.004;12.120;2023-05-29T05:55:04;7.50;;;5.10;;
60726;SDS011;46577;49.004;12.120;2023-05-29T05:57:30;7.63;;;5.37;;
60726;SDS011;46577;49.004;12.120;2023-05-29T05:59:57;7.80;;;4.40;;
60726;SDS011;46577;49.004;12.120;2023-05-29T06:02:29;6.13;;;4.13;;
60726;SDS011;46577;49.004;12.120;2023-05-29T06:04:55;9.23;;;4.07;;
60726;SDS011;46577;49.004;12.120;2023-05-29T06:07:20;6.30;;;4.30;;
60726;SDS011;46577;49.004;12.120;2023-05-29T06:09:46;6.63;;;4.97;;
60726;SDS011;46577;49.004;12.120;2023-05-29T06:12:12;9.57;;;4.50;;
60726;SDS011;46577;49.004;12.120;2023-05-29T06:14:38;7.20;;;4.40;;
60726;SDS011;46577;49.004;12.120;2023-05-29T06:17:03;10.30;;;4.53;;
60726;SDS011;46577;49.004;12.120;2023-05-29T06:19:29;6.30;;;4.10;;
60726;SDS011;46577;49.004;12.120;2023-05-29T06:21:54;6.33;;;4.03;;
60726;SDS011;46577;49.004;12.120;2023-05-29T06:24:20;6.90;;;4.10;;
60726;SDS011;46577;49.004;12.120;2023-05-29T06:26:46;4.93;;;3.83;;
60726;SDS011;46577;49.004;12.120;2023-05-29T06:29:11;9.73;;;4.43;;
60726;SDS011;46577;49.004;12.120;2023-05-29T06:31:37;8.90;;;3.70;;
60726;SDS011;46577;49.004;12.120;2023-05-29T06:34:02;9.40;;;3.80;;
60726;SDS011;46577;49.004;12.120;2023-05-29T06:36:28;8.33;;;3.47;;
60726;SDS011;46577;49.004;12.120;2023-05-29T06:38:54;5.87;;;4.03;;
60726;SDS011;46577;49.004;12.120;2023-05-29T06:41:20;4.03;;;3.10;;
60726;SDS011;46577;49.004;12.120;2023-05-29T06:43:46;4.30;;;3.13;;
60726;SDS011;46577;49.004;12.120;2023-05-29T06:46:12;3.83;;;2.73;;
60726;SDS011;46577;49.004;12.120;2023-05-29T06:48:37;6.30;;;3.63;;
60726;SDS011;46577;49.004;12.120;2023-05-29T06:51:03;6.10;;;3.03;;
60726;SDS011;46577;49.004;12.120;2023-05-29T06:53:36;3.90;;;2.93;;
60726;SDS011;46577;49.004;12.120;2023-05-29T06:56:02;3.70;;;2.60;;
60726;SDS011;46577;49.004;12.120;2023-05-29T06:58:29;3.70;;;3.40;;
60726;SDS011;46577;49.004;12.120;2023-05-29T07:00:55;12.63;;;3.37;;
60726;SDS011;46577;49.004;12.120;2023-05-29T07:03:21;4.27;;;3.10;;
60726;SDS011;46577;49.004;12.120;2023-05-29T07:05:47;7.23;;;3.03;;
60726;SDS011;46577;49.004;12.120;2023-05-29T07:08:12;4.30;;;3.40;;
60726;SDS011;46577;49.004;12.120;2023-05-29T07:10:38;3.13;;;2.58;;
60726;SDS011;46577;49.004;12.120;2023-05-29T07:13:04;4.35;;;2.60;;
60726;SDS011;46577;49.004;12.120;2023-05-29T07:15:31;3.67;;;2.08;;
60726;SDS011;46577;49.004;12.120;2023-05-29T07:17:57;2.42;;;2.22;;
60726;SDS011;46577;49.004;12.120;2023-05-29T07:20:22;2.90;;;2.50;;
60726;SDS011;46577;49.004;12.120;2023-05-29T07:22:48;4.03;;;2.67;;
60726;SDS011;46577;49.004;12.120;2023-05-29T07:25:14;3.45;;;2.47;;
60726;SDS011;46577;49.004;12.120;2023-05-29T07:27:39;3.03;;;2.30;;
60726;SDS011;46577;49.004;12.120;2023-05-29T07:30:05;4.40;;;2.28;;
60726;SDS011;46577;49.004;12.120;2023-05-29T07:32:32;2.58;;;1.83;;
60726;SDS011;46577;49.004;12.120;2023-05-29T07:34:57;4.03;;;2.10;;
60726;SDS011;46577;49.004;12.120;2023-05-29T07:37:23;2.35;;;1.75;;
60726;SDS011;46577;49.004;12.120;2023-05-29T07:39:48;4.57;;;2.50;;
60726;SDS011;46577;49.004;12.120;2023-05-29T07:42:14;3.28;;;2.33;;
60726;SDS011;46577;49.004;12.120;2023-05-29T07:44:40;2.33;;;2.10;;
60726;SDS011;46577;49.004;12.120;2023-05-29T07:47:07;2.08;;;1.88;;
60726;SDS011;46577;49.004;12.120;2023-05-29T07:49:33;2.20;;;2.00;;
60726;SDS011;46577;49.004;12.120;2023-05-29T07:52:00;3.85;;;2.03;;
60726;SDS011;46577;49.004;12.120;2023-05-29T07:54:30;2.22;;;1.70;;
60726;SDS011;46577;49.004;12.120;2023-05-29T07:56:58;1.90;;;1.75;;
60726;SDS011;46577;49.004;12.120;2023-05-29T07:59:24;8.00;;;2.17;;
60726;SDS011;46577;49.004;12.120;2023-05-29T08:01:50;1.67;;;1.58;;
60726;SDS011;46577;49.004;12.120;2023-05-29T08:04:16;2.33;;;1.55;;
60726;SDS011;46577;49.004;12.120;2023-05-29T08:06:42;1.50;;;1.30;;
60726;SDS011;46577;49.004;12.120;2023-05-29T08:09:08;3.15;;;1.75;;
60726;SDS011;46577;49.004;12.120;2023-05-29T08:11:35;7.22;;;1.80;;
60726;SDS011;46577;49.004;12.120;2023-05-29T08:14:01;3.63;;;1.52;;
60726;SDS011;46577;49.004;12.120;2023-05-29T08:16:28;3.38;;;1.75;;
60726;SDS011;46577;49.004;12.120;2023-05-29T08:18:53;1.60;;;1.50;;
60726;SDS011;46577;49.004;12.120;2023-05-29T08:21:20;3.85;;;1.38;;
60726;SDS011;46577;49.004;12.120;2023-05-29T08:23:45;2.53;;;1.83;;
60726;SDS011;46577;49.004;12.120;2023-05-29T08:26:11;2.28;;;2.08;;
60726;SDS011;46577;49.004;12.120;2023-05-29T08:28:37;2.15;;;1.85;;
60726;SDS011;46577;49.004;12.120;2023-05-29T08:31:03;1.90;;;1.52;;
60726;SDS011;46577;49.004;12.120;2023-05-29T08:33:28;2.75;;;2.00;;
60726;SDS011;46577;49.004;12.120;2023-05-29T08:35:56;2.58;;;1.80;;
60726;SDS011;46577;49.004;12.120;2023-05-29T08:38:23;1.67;;;1.50;;
60726;SDS011;46577;49.004;12.120;2023-05-29T08:40:50;2.92;;;1.83;;
60726;SDS011;46577;49.004;12.120;2023-05-29T08:43:18;2.33;;;2.00;;
60726;SDS011;46577;49.004;12.120;2023-05-29T08:45:47;8.05;;;2.15;;
60726;SDS011;46577;49.004;12.120;2023-05-29T08:48:18;3.20;;;1.80;;
60726;SDS011;46577;49.004;12.120;2023-05-29T08:50:47;2.45;;;2.20;;
60726;SDS011;46577;49.004;12.120;2023-05-29T08:53:16;3.10;;;1.83;;
60726;SDS011;46577;49.004;12.120;2023-05-29T08:55:44;2.33;;;2.13;;
60726;SDS011;46577;49.004;12.120;2023-05-29T08:58:15;2.35;;;1.90;;
60726;SDS011;46577;49.004;12.120;2023-05-29T09:00:42;2.13;;;1.92;;
60726;SDS011;46577;49.004;12.120;2023-05-29T09:03:08;1.40;;;1.30;;
60726;SDS011;46577;49.004;12.120;2023-05-29T09:05:34;2.92;;;2.13;;
60726;SDS011;46577;49.004;12.120;2023-05-29T09:08:04;2.70;;;1.90;;
60726;SDS011;46577;49.004;12.120;2023-05-29T09:10:30;2.50;;;1.45;;
60726;SDS011;46577;49.004;12.120;2023-05-29T09:12:57;2.65;;;1.85;;
60726;SDS011;46577;49.004;12.120;2023-05-29T09:15:23;4.35;;;1.52;;
60726;SDS011;46577;49.004;12.120;2023-05-29T09:17:52;2.00;;;1.30;;
60726;SDS011;46577;49.004;12.120;2023-05-29T09:20:20;1.70;;;1.60;;
60726;SDS011;46577;49.004;12.120;2023-05-29T09:22:55;10.00;;;1.67;;
60726;SDS011;46577;49.004;12.120;2023-05-29T09:25:25;2.15;;;1.80;;
60726;SDS011;46577;49.004;12.120;2023-05-29T09:27:55;5.20;;;1.70;;
60726;SDS011;46577;49.004;12.120;2023-05-29T09:30:34;1.50;;;1.40;;
60726;SDS011;46577;49.004;12.120;2023-05-29T09:33:04;2.95;;;1.90;;
60726;SDS011;46577;49.004;12.120;2023-05-29T09:35:34;1.67;;;1.58;;
60726;SDS011;46577;49.004;12.120;2023-05-29T09:38:07;3.97;;;1.67;;
60726;SDS011;46577;49.004;12.120;2023-05-29T09:40:35;1.67;;;1.52;;
60726;SDS011;46577;49.004;12.120;2023-05-29T09:43:06;3.17;;;1.65;;
60726;SDS011;46577;49.004;12.120;2023-05-29T09:45:36;3.03;;;1.60;;
60726;SDS011;46577;49.004;12.120;2023-05-29T09:48:15;2.78;;;1.70;;
60726;SDS011;46577;49.004;12.120;2023-05-29T09:50:41;3.55;;;2.05;;
60726;SDS011;46577;49.004;12.120;2023-05-29T09:53:19;3.33;;;1.70;;
60726;SDS011;46577;49.004;12.120;2023-05-29T09:55:47;2.17;;;1.95;;
60726;SDS011;46577;49.004;12.120;2023-05-29T09:58:22;1.40;;;1.25;;
60726;SDS011;46577;49.004;12.120;2023-05-29T10:00:50;3.60;;;2.03;;
60726;SDS011;46577;49.004;12.120;2023-05-29T10:03:17;2.95;;;1.58;;
60726;SDS011;46577;49.004;12.120;2023-05-29T10:05:47;13.20;;;8.93;;
60726;SDS011;46577;49.004;12.120;2023-05-29T10:08:17;3.20;;;2.30;;
60726;SDS011;46577;49.004;12.120;2023-05-29T10:10:44;3.45;;;2.70;;
60726;SDS011;46577;49.004;12.120;2023-05-29T10:13:12;3.05;;;1.55;;
60726;SDS011;46577;49.004;12.120;2023-05-29T10:15:45;1.92;;;1.58;;
60726;SDS011;46577;49.004;12.120;2023-05-29T10:20:37;1.13;;;1.02;;
60726;SDS011;46577;49.004;12.120;2023-05-29T10:23:03;2.45;;;1.25;;
60726;SDS011;46577;49.004;12.120;2023-05-29T10:25:32;1.40;;;1.30;;
60726;SDS011;46577;49.004;12.120;2023-05-29T10:28:00;1.23;;;1.13;;
60726;SDS011;46577;49.004;12.120;2023-05-29T10:30:30;1.27;;;1.17;;
60726;SDS011;46577;49.004;12.120;2023-05-29T10:35:46;3.00;;;1.42;;
60726;SDS011;46577;49.004;12.120;2023-05-29T10:38:13;4.57;;;1.50;;
60726;SDS011;46577;49.004;12.120;2023-05-29T10:40:41;2.30;;;1.60;;
60726;SDS011;46577;49.004;12.120;2023-05-29T10:43:08;2.63;;;2.42;;
60726;SDS011;46577;49.004;12.120;2023-05-29T10:45:47;4.10;;;3.75;;
60726;SDS011;46577;49.004;12.120;2023-05-29T10:51:00;3.95;;;3.00;;
60726;SDS011;46577;49.004;12.120;2023-05-29T10:53:26;10.27;;;6.95;;
60726;SDS011;46577;49.004;12.120;2023-05-29T10:55:55;11.68;;;10.57;;
60726;SDS011;46577;49.004;12.120;2023-05-29T10:58:22;3.72;;;2.50;;
60726;SDS011;46577;49.004;12.120;2023-05-29T11:00:49;2.03;;;1.58;;
60726;SDS011;46577;49.004;12.120;2023-05-29T11:03:17;3.22;;;1.45;;
60726;SDS011;46577;49.004;12.120;2023-05-29T11:05:55;3.95;;;2.30;;
60726;SDS011;46577;49.004;12.120;2023-05-29T11:08:33;2.28;;;1.60;;
60726;SDS011;46577;49.004;12.120;2023-05-29T11:11:00;8.95;;;2.40;;
60726;SDS011;46577;49.004;12.120;2023-05-29T11:13:30;17.60;;;4.65;;
60726;SDS011;46577;49.004;12.120;2023-05-29T11:18:55;4.57;;;3.30;;
60726;SDS011;46577;49.004;12.120;2023-05-29T11:21:33;5.70;;;3.50;;
60726;SDS011;46577;49.004;12.120;2023-05-29T11:23:59;5.67;;;2.90;;
60726;SDS011;46577;49.004;12.120;2023-05-29T11:26:28;3.03;;;2.50;;
60726;SDS011;46577;49.004;12.120;2023-05-29T11:29:02;7.80;;;2.83;;
60726;SDS011;46577;49.004;12.120;2023-05-29T11:31:35;4.43;;;3.33;;
60726;SDS011;46577;49.004;12.120;2023-05-29T11:34:03;5.23;;;3.37;;
60726;SDS011;46577;49.004;12.120;2023-05-29T11:36:33;7.00;;;3.33;;
60726;SDS011;46577;49.004;12.120;2023-05-29T11:39:00;5.90;;;2.83;;
60726;SDS011;46577;49.004;12.120;2023-05-29T11:41:26;8.40;;;3.60;;
60726;SDS011;46577;49.004;12.120;2023-05-29T11:44:02;9.37;;;3.03;;
60726;SDS011;46577;49.004;12.120;2023-05-29T11:46:31;5.57;;;3.57;;
60726;SDS011;46577;49.004;12.120;2023-05-29T11:48:57;4.03;;;3.10;;
60726;SDS011;46577;49.004;12.120;2023-05-29T11:51:23;6.20;;;2.83;;
60726;SDS011;46577;49.004;12.120;2023-05-29T11:53:50;5.87;;;3.30;;
60726;SDS011;46577;49.004;12.120;2023-05-29T11:56:18;8.43;;;3.50;;
60726;SDS011;46577;49.004;12.120;2023-05-29T11:58:43;4.53;;;3.37;;
60726;SDS011;46577;49.004;12.120;2023-05-29T12:01:10;4.93;;;3.30;;
60726;SDS011;46577;49.004;12.120;2023-05-29T12:03:40;5.77;;;2.97;;
60726;SDS011;46577;49.004;12.120;2023-05-29T12:06:06;4.43;;;3.20;;
60726;SDS011;46577;49.004;12.120;2023-05-29T12:08:33;4.60;;;3.03;;
60726;SDS011;46577;49.004;12.120;2023-05-29T12:10:59;3.43;;;2.60;;
60726;SDS011;46577;49.004;12.120;2023-05-29T12:13:25;6.30;;;3.43;;
60726;SDS011;46577;49.004;12.120;2023-05-29T12:15:57;4.83;;;2.50;;
60726;SDS011;46577;49.004;12.120;2023-05-29T12:18:26;18.43;;;9.60;;
60726;SDS011;46577;49.004;12.120;2023-05-29T12:20:59;16.20;;;9.83;;
60726;SDS011;46577;49.004;12.120;2023-05-29T12:23:26;8.23;;;3.63;;
60726;SDS011;46577;49.004;12.120;2023-05-29T12:25:53;6.93;;;3.33;;
60726;SDS011;46577;49.004;12.120;2023-05-29T12:28:20;11.70;;;4.00;;
60726;SDS011;46577;49.004;12.120;2023-05-29T12:30:46;5.70;;;3.53;;
60726;SDS011;46577;49.004;12.120;2023-05-29T12:33:40;3.30;;;3.00;;
60726;SDS011;46577;49.004;12.120;2023-05-29T12:36:08;4.20;;;3.07;;
60726;SDS011;46577;49.004;12.120;2023-05-29T12:38:49;4.23;;;3.07;;
60726;SDS011;46577;49.004;12.120;2023-05-29T12:43:57;5.23;;;3.20;;
60726;SDS011;46577;49.004;12.120;2023-05-29T12:46:24;4.27;;;2.60;;
60726;SDS011;46577;49.004;12.120;2023-05-29T12:48:52;10.07;;;3.60;;
60726;SDS011;46577;49.004;12.120;2023-05-29T12:51:27;10.53;;;3.53;;
60726;SDS011;46577;49.004;12.120;2023-05-29T12:53:53;6.20;;;3.90;;
60726;SDS011;46577;49.004;12.120;2023-05-29T12:56:22;5.80;;;3.20;;
60726;SDS011;46577;49.004;12.120;2023-05-29T12:58:51;12.77;;;5.37;;
60726;SDS011;46577;49.004;12.120;2023-05-29T13:01:17;10.97;;;3.47;;
60726;SDS011;46577;49.004;12.120;2023-05-29T13:03:43;10.10;;;6.60;;
60726;SDS011;46577;49.004;12.120;2023-05-29T13:06:10;6.63;;;3.47;;
60726;SDS011;46577;49.004;12.120;2023-05-29T13:08:35;27.50;;;17.10;;
60726;SDS011;46577;49.004;12.120;2023-05-29T13:11:01;11.27;;;4.40;;
60726;SDS011;46577;49.004;12.120;2023-05-29T13:13:27;4.60;;;3.60;;
60726;SDS011;46577;49.004;12.120;2023-05-29T13:15:53;6.43;;;3.63;;
60726;SDS011;46577;49.004;12.120;2023-05-29T13:18:18;4.97;;;2.83;;
60726;SDS011;46577;49.004;12.120;2023-05-29T13:20:44;12.10;;;3.40;;
60726;SDS011;46577;49.004;12.120;2023-05-29T13:23:09;8.97;;;4.13;;
60726;SDS011;46577;49.004;12.120;2023-05-29T13:25:35;6.20;;;3.07;;
60726;SDS011;46577;49.004;12.120;2023-05-29T13:28:01;5.50;;;2.83;;
60726;SDS011;46577;49.004;12.120;2023-05-29T13:30:26;5.90;;;3.60;;
60726;SDS011;46577;49.004;12.120;2023-05-29T13:32:52;3.63;;;3.00;;
60726;SDS011;46577;49.004;12.120;2023-05-29T13:35:18;6.10;;;3.10;;
60726;SDS011;46577;49.004;12.120;2023-05-29T13:37:45;7.73;;;3.57;;
60726;SDS011;46577;49.004;12.120;2023-05-29T13:40:10;6.73;;;3.37;;
60726;SDS011;46577;49.004;12.120;2023-05-29T13:42:38;8.03;;;3.43;;
60726;SDS011;46577;49.004;12.120;2023-05-29T13:45:04;6.23;;;3.53;;
60726;SDS011;46577;49.004;12.120;2023-05-29T13:47:31;5.53;;;3.00;;
60726;SDS011;46577;49.004;12.120;2023-05-29T13:49:58;6.27;;;2.90;;
60726;SDS011;46577;49.004;12.120;2023-05-29T13:52:23;3.83;;;2.97;;
60726;SDS011;46577;49.004;12.120;2023-05-29T13:54:50;4.23;;;3.03;;
60726;SDS011;46577;49.004;12.120;2023-05-29T13:57:15;10.97;;;4.30;;
60726;SDS011;46577;49.004;12.120;2023-05-29T13:59:41;4.80;;;3.27;;
60726;SDS011;46577;49.004;12.120;2023-05-29T14:02:06;5.10;;;4.00;;
60726;SDS011;46577;49.004;12.120;2023-05-29T14:04:33;7.90;;;5.23;;
60726;SDS011;46577;49.004;12.120;2023-05-29T14:06:59;4.97;;;4.10;;
60726;SDS011;46577;49.004;12.120;2023-05-29T14:09:25;11.90;;;5.23;;
60726;SDS011;46577;49.004;12.120;2023-05-29T14:11:54;3.60;;;3.30;;
60726;SDS011;46577;49.004;12.120;2023-05-29T14:14:20;12.67;;;5.57;;
60726;SDS011;46577;49.004;12.120;2023-05-29T14:16:46;10.50;;;4.33;;
60726;SDS011;46577;49.004;12.120;2023-05-29T14:19:12;5.57;;;4.07;;
60726;SDS011;46577;49.004;12.120;2023-05-29T14:21:38;5.97;;;4.50;;
60726;SDS011;46577;49.004;12.120;2023-05-29T14:24:04;6.93;;;3.83;;
60726;SDS011;46577;49.004;12.120;2023-05-29T14:26:29;5.33;;;3.03;;
60726;SDS011;46577;49.004;12.120;2023-05-29T14:28:55;17.93;;;3.43;;
60726;SDS011;46577;49.004;12.120;2023-05-29T14:31:21;5.00;;;2.50;;
60726;SDS011;46577;49.004;12.120;2023-05-29T14:33:47;5.00;;;3.20;;
60726;SDS011;46577;49.004;12.120;2023-05-29T14:36:12;8.63;;;3.37;;
60726;SDS011;46577;49.004;12.120;2023-05-29T14:38:38;6.03;;;3.50;;
60726;SDS011;46577;49.004;12.120;2023-05-29T14:41:04;6.00;;;3.37;;
60726;SDS011;46577;49.004;12.120;2023-05-29T14:43:29;6.33;;;3.67;;
60726;SDS011;46577;49.004;12.120;2023-05-29T14:45:55;6.40;;;3.27;;
60726;SDS011;46577;49.004;12.120;2023-05-29T14:48:20;6.30;;;3.03;;
60726;SDS011;46577;49.004;12.120;2023-05-29T14:50:46;3.57;;;3.00;;
60726;SDS011;46577;49.004;12.120;2023-05-29T14:53:11;4.23;;;3.20;;
60726;SDS011;46577;49.004;12.120;2023-05-29T14:55:37;4.20;;;3.20;;